Time;durP1;ratioP1;P1;durP2;ratioP2;P2;SDS_P1;SDS_P2;PMS_P1;PMS_P2;Temp;Humidity;BMP_temperature;BMP_pressure;BME280_temperature;BME280_humidity;BME280_pressure;Samples;Min_cycle;Max_cycle;Signal;HPM_P1;HPM_P2
2024/01/07 00:01:20;;;;;;;22.48;13.20;;;4.20;99.90;;;4.61;75.08;100498.91;4939581;29;20099;-85
2024/01/07 00:03:48;;;;;;;21.63;12.90;;;4.30;99.90;;;4.69;75.16;100505.97;4942921;29;20070;-85
2024/01/07 00:06:15;;;;;;;22.08;13.02;;;4.40;99.90;;;4.68;75.14;100505.13;4938861;29;20060;-86
2024/01/07 00:08:43;;;;;;;24.33;14.45;;;4.40;99.90;;;4.71;75.01;100509.25;4943245;29;20043;-85
2024/01/07 00:11:11;;;;;;;25.30;15.05;;;4.40;99.90;;;4.62;74.37;100504.00;4958217;29;20468;-85
2024/01/07 00:13:38;;;;;;;24.20;14.50;;;4.30;99.90;;;4.56;74.76;100512.63;4941335;29;20047;-85
2024/01/07 00:16:08;;;;;;;24.83;14.70;;;4.30;99.90;;;4.44;75.14;100508.72;4942173;29;20060;-85
2024/01/07 00:18:36;;;;;;;23.88;14.80;;;4.10;99.90;;;4.43;75.29;100512.31;4942162;29;20051;-85
2024/01/07 00:21:04;;;;;;;25.33;14.57;;;4.10;99.90;;;4.47;75.24;100513.63;4926034;29;20039;-85
2024/01/07 00:23:32;;;;;;;25.50;14.60;;;4.20;99.90;;;4.46;75.20;100513.81;4942970;29;20052;-85
2024/01/07 00:25:59;;;;;;;25.45;14.50;;;4.20;99.90;;;4.52;75.35;100511.31;4927118;29;20503;-85
2024/01/07 00:28:28;;;;;;;25.88;15.73;;;4.20;99.90;;;4.51;74.83;100520.22;4943032;29;20068;-85
2024/01/07 00:30:56;;;;;;;25.27;14.70;;;4.20;99.90;;;4.38;74.99;100519.94;4958219;29;20063;-85
2024/01/07 00:33:26;;;;;;;25.48;15.38;;;4.10;99.90;;;4.40;75.55;100528.53;4925358;29;21571;-85
2024/01/07 00:35:54;;;;;;;27.03;15.13;;;4.10;99.90;;;4.35;74.71;100520.28;4937231;29;20420;-85
2024/01/07 00:38:22;;;;;;;26.38;14.20;;;4.10;99.90;;;4.37;75.10;100526.22;4921051;29;20058;-85
2024/01/07 00:40:49;;;;;;;25.90;13.85;;;4.00;99.90;;;4.46;75.39;100533.13;4923791;29;20051;-85
2024/01/07 00:43:18;;;;;;;23.92;13.82;;;4.20;99.90;;;4.49;75.69;100532.78;4925448;29;20112;-85
2024/01/07 00:45:45;;;;;;;24.88;14.57;;;4.20;99.90;;;4.52;75.05;100536.91;4935306;29;20103;-85
2024/01/07 00:48:14;;;;;;;24.65;14.20;;;4.20;99.90;;;4.49;75.21;100531.94;4923172;29;20112;-85
2024/01/07 00:50:43;;;;;;;22.70;13.73;;;4.20;99.90;;;4.52;75.13;100537.72;4936532;29;20412;-85
2024/01/07 00:53:12;;;;;;;22.08;13.38;;;4.20;99.90;;;4.49;74.45;100530.16;4942840;29;20102;-85
2024/01/07 00:55:39;;;;;;;22.35;13.57;;;4.20;99.90;;;4.41;74.41;100539.91;4927122;29;20120;-85
2024/01/07 00:58:07;;;;;;;23.55;13.95;;;4.00;99.90;;;4.48;75.02;100540.88;4918555;29;20055;-85
2024/01/07 01:00:35;;;;;;;23.75;14.43;;;4.20;99.90;;;4.52;75.31;100537.72;4923435;29;20056;-86
2024/01/07 01:03:04;;;;;;;22.30;14.23;;;4.20;99.90;;;4.43;74.14;100544.00;4945444;29;20048;-85
2024/01/07 01:05:31;;;;;;;21.25;12.93;;;4.10;99.90;;;4.26;74.23;100545.06;4892144;29;20044;-85
2024/01/07 01:08:00;;;;;;;24.00;14.15;;;4.00;99.90;;;4.30;74.67;100533.19;4925981;29;20051;-85
2024/01/07 01:10:28;;;;;;;25.02;14.35;;;4.20;99.90;;;4.17;74.56;100546.88;4935590;29;20047;-85
2024/01/07 01:12:55;;;;;;;23.88;14.38;;;3.90;99.90;;;4.14;74.90;100549.84;4904958;29;20059;-85
2024/01/07 01:15:23;;;;;;;21.90;13.30;;;3.90;99.90;;;4.13;75.11;100550.84;4952752;29;20445;-85
2024/01/07 01:17:50;;;;;;;26.38;14.43;;;3.90;99.90;;;4.20;75.50;100554.47;4924324;29;20040;-85
2024/01/07 01:20:18;;;;;;;22.98;13.73;;;3.90;99.90;;;4.24;74.99;100558.41;4933707;29;20080;-85
2024/01/07 01:22:46;;;;;;;23.48;13.98;;;3.90;99.90;;;4.22;74.49;100554.31;4943656;29;20048;-85
2024/01/07 01:25:15;;;;;;;23.23;14.18;;;4.00;99.90;;;4.24;74.81;100558.41;4958167;29;20040;-85
2024/01/07 01:27:45;;;;;;;23.67;13.52;;;4.00;99.90;;;4.15;75.18;100567.34;4946944;29;20048;-85
2024/01/07 01:30:13;;;;;;;25.98;14.75;;;3.90;99.90;;;4.04;74.68;100565.84;4944817;29;20139;-85
2024/01/07 01:32:41;;;;;;;23.98;14.05;;;3.80;99.90;;;3.91;75.39;100570.81;4945607;29;20043;-85
2024/01/07 01:35:09;;;;;;;25.90;13.85;;;3.70;99.90;;;4.05;75.66;100575.44;4943872;29;20512;-85
2024/01/07 01:37:37;;;;;;;26.75;14.60;;;3.80;99.90;;;4.09;75.78;100579.38;4925673;29;20078;-85
2024/01/07 01:40:05;;;;;;;28.98;14.80;;;3.80;99.90;;;4.14;75.47;100582.34;4943670;29;20048;-85
2024/01/07 01:42:34;;;;;;;27.33;14.35;;;3.90;99.90;;;4.25;75.49;100596.22;4948158;29;20044;-85
2024/01/07 01:45:03;;;;;;;26.45;14.93;;;3.90;99.90;;;4.17;75.21;100585.66;4933670;29;20040;-85
2024/01/07 01:47:32;;;;;;;27.67;15.32;;;3.90;99.90;;;4.10;74.85;100588.13;4941008;29;20051;-85
2024/01/07 01:50:02;;;;;;;27.58;15.10;;;3.80;99.90;;;4.17;75.54;100590.94;4938448;29;20432;-85
2024/01/07 01:52:31;;;;;;;26.55;14.55;;;4.10;99.90;;;4.22;75.78;100593.91;4939431;29;20135;-85
2024/01/07 01:54:59;;;;;;;25.67;15.32;;;3.90;99.90;;;4.23;75.09;100593.72;4922958;29;20036;-85
2024/01/07 01:57:35;;;;;;;27.67;15.05;;;3.90;99.90;;;4.19;75.55;100592.41;4913837;29;20079;-85
2024/01/07 02:00:05;;;;;;;28.05;15.68;;;3.90;99.90;;;4.19;75.65;100588.94;4951969;29;20048;-85
2024/01/07 02:02:34;;;;;;;27.35;15.18;;;3.90;99.90;;;4.11;74.95;100598.53;4927362;29;20056;-85
2024/01/07 02:05:02;;;;;;;28.40;15.95;;;3.90;99.90;;;4.05;75.45;100593.91;4938981;29;20044;-85
2024/01/07 02:07:30;;;;;;;27.92;15.20;;;3.80;99.90;;;4.09;75.47;100592.56;4933130;29;20052;-85
2024/01/07 02:09:58;;;;;;;26.02;16.05;;;3.80;99.90;;;4.03;75.75;100595.06;4935925;29;20062;-85
2024/01/07 02:12:26;;;;;;;28.58;16.02;;;3.80;99.90;;;4.07;75.90;100599.84;4943729;29;20048;-85
2024/01/07 02:14:55;;;;;;;27.80;15.27;;;3.80;99.90;;;4.07;75.48;100599.84;4907774;29;20044;-85
2024/01/07 02:17:23;;;;;;;27.65;15.93;;;3.80;99.90;;;4.10;75.37;100606.63;4940605;29;20044;-85
2024/01/07 02:19:51;;;;;;;24.83;15.23;;;3.80;99.90;;;4.09;75.56;100608.41;4923834;29;20579;-85
2024/01/07 02:22:18;;;;;;;26.60;15.25;;;3.80;99.90;;;4.17;75.41;100609.41;4923920;29;20104;-85
2024/01/07 02:24:47;;;;;;;26.90;16.30;;;3.90;99.90;;;4.21;75.28;100608.91;4938394;29;20046;-85
2024/01/07 02:27:17;;;;;;;29.27;15.27;;;3.90;99.90;;;4.18;74.99;100611.03;4925469;29;20044;-85
2024/01/07 02:29:44;;;;;;;26.45;15.38;;;3.90;99.90;;;4.14;74.93;100613.19;4943476;29;20079;-85
2024/01/07 02:32:13;;;;;;;25.48;15.25;;;3.80;99.90;;;4.14;75.37;100626.38;4921369;29;20051;-85
2024/01/07 02:34:40;;;;;;;26.33;15.63;;;3.80;99.90;;;4.02;75.29;100622.44;4940188;29;20106;-85
2024/01/07 02:37:09;;;;;;;28.60;16.13;;;3.70;99.90;;;3.96;74.76;100612.56;4957489;29;20048;-85
2024/01/07 02:39:36;;;;;;;25.17;14.63;;;3.70;99.90;;;3.95;75.13;100613.50;4928535;29;20060;-85
2024/01/07 02:42:06;;;;;;;27.02;14.82;;;3.70;99.90;;;4.04;75.48;100621.28;4925936;29;20044;-85
2024/01/07 02:44:36;;;;;;;22.95;13.75;;;3.70;99.90;;;3.90;74.18;100626.38;4941028;29;20050;-85
2024/01/07 02:47:04;;;;;;;21.93;13.40;;;3.70;99.90;;;3.93;75.10;100620.78;4938958;29;20058;-85
2024/01/07 02:49:32;;;;;;;21.50;13.18;;;3.70;99.90;;;3.95;74.34;100626.72;4928671;29;20287;-85
2024/01/07 02:52:02;;;;;;;22.42;12.95;;;3.70;99.90;;;4.01;74.87;100629.53;4922678;29;20054;-85
2024/01/07 02:54:30;;;;;;;21.08;13.23;;;3.90;99.90;;;4.04;74.46;100631.81;4925132;29;20043;-85
2024/01/07 02:56:58;;;;;;;21.83;13.40;;;3.80;99.90;;;4.03;74.04;100632.00;4937623;29;20080;-85
2024/01/07 02:59:27;;;;;;;23.23;13.63;;;3.70;99.90;;;3.99;73.97;100636.78;4937655;29;20130;-85
2024/01/07 03:01:54;;;;;;;25.75;14.20;;;3.70;99.90;;;3.94;73.80;100640.91;4905499;29;20052;-85
2024/01/07 03:04:22;;;;;;;20.98;13.48;;;3.70;99.90;;;3.94;74.07;100636.44;4908566;29;20044;-85
2024/01/07 03:06:50;;;;;;;22.35;13.50;;;3.70;99.90;;;3.97;74.18;100644.03;4938822;29;20472;-85
2024/01/07 03:09:17;;;;;;;23.30;14.48;;;3.70;99.90;;;3.99;74.37;100647.31;4911816;29;20048;-85
2024/01/07 03:11:45;;;;;;;23.58;13.75;;;3.70;99.90;;;4.00;74.13;100656.91;4937820;29;20088;-85
2024/01/07 03:14:13;;;;;;;24.98;15.13;;;3.70;99.90;;;4.01;73.35;100671.75;4932231;29;20043;-85
2024/01/07 03:16:42;;;;;;;23.13;14.70;;;3.80;99.90;;;3.83;73.22;100666.59;4938726;29;20486;-85
2024/01/07 03:19:12;;;;;;;24.48;14.68;;;3.60;99.90;;;3.89;73.85;100657.22;4911164;29;20107;-85
2024/01/07 03:21:42;;;;;;;28.25;15.93;;;3.70;99.90;;;3.87;73.30;100664.47;4922424;29;20430;-85
2024/01/07 03:24:09;;;;;;;27.73;16.00;;;3.60;99.90;;;3.75;74.06;100682.41;4927311;29;20500;-85
2024/01/07 03:26:38;;;;;;;27.55;16.17;;;3.60;99.90;;;3.76;73.63;100678.00;4924974;29;20280;-85
2024/01/07 03:29:05;;;;;;;25.30;15.45;;;3.50;99.90;;;3.71;73.65;100670.56;4909298;29;20048;-85
2024/01/07 03:31:32;;;;;;;27.30;15.45;;;3.50;99.90;;;3.65;73.40;100665.09;4926496;29;20052;-85
2024/01/07 03:34:03;;;;;;;28.42;16.33;;;3.40;99.90;;;3.77;74.35;100664.63;4930163;29;20048;-85
2024/01/07 03:36:31;;;;;;;;;;;3.50;99.90;;;3.80;73.99;100671.38;4929911;29;20040;-85
2024/01/07 03:39:00;;;;;;;26.55;15.15;;;3.50;99.90;;;3.66;73.03;100664.94;4935759;29;19926;-85
2024/01/07 03:41:28;;;;;;;25.92;15.68;;;3.40;99.90;;;3.66;73.71;100664.94;4922143;29;20052;-84
2024/01/07 03:43:56;;;;;;;22.48;14.77;;;3.40;99.90;;;3.67;73.80;100668.41;4926532;29;20050;-84
2024/01/07 03:46:24;;;;;;;23.83;14.90;;;3.40;99.90;;;3.69;73.87;100669.06;4933449;29;20592;-85
2024/01/07 03:48:51;;;;;;;26.58;16.17;;;3.40;99.90;;;3.70;73.24;100673.34;4928951;29;20126;-85
2024/01/07 03:51:20;;;;;;;24.10;14.77;;;3.40;99.90;;;3.69;73.72;100675.16;4951658;29;20080;-85
2024/01/07 03:53:49;;;;;;;24.25;15.13;;;3.40;99.90;;;3.71;73.05;100669.69;4934332;29;20476;-85
2024/01/07 03:56:17;;;;;;;24.95;14.45;;;3.50;99.90;;;3.66;73.41;100679.91;4955281;29;20051;-86
2024/01/07 03:58:45;;;;;;;23.23;14.50;;;3.40;99.90;;;3.60;72.88;100669.03;4939534;29;20548;-85
2024/01/07 04:01:18;;;;;;;22.58;14.18;;;3.40;99.90;;;3.63;73.56;100681.06;4930300;29;20048;-85
2024/01/07 04:03:45;;;;;;;23.48;14.73;;;3.30;99.90;;;3.57;72.41;100674.63;4925410;29;20419;-85
2024/01/07 04:06:13;;;;;;;23.92;14.75;;;3.30;99.90;;;3.57;73.60;100679.09;4938751;29;20052;-85
2024/01/07 04:08:42;;;;;;;22.67;14.80;;;3.30;99.90;;;3.52;73.43;100684.84;4940156;29;20047;-84
2024/01/07 04:11:10;;;;;;;24.10;15.38;;;3.50;99.90;;;3.59;73.41;100688.47;4929148;29;20059;-84
2024/01/07 04:13:38;;;;;;;21.08;13.63;;;3.30;99.90;;;3.41;73.30;100689.56;4941052;29;20054;-85
2024/01/07 04:16:06;;;;;;;22.23;13.48;;;3.20;99.90;;;3.41;73.78;100695.66;4940581;29;20044;-85
2024/01/07 04:18:34;;;;;;;23.77;14.68;;;3.20;99.90;;;3.45;73.79;100702.25;4918312;29;20044;-84
2024/01/07 04:21:02;;;;;;;22.90;14.32;;;3.20;99.90;;;3.36;73.25;100708.50;4955036;29;20063;-85
2024/01/07 04:23:30;;;;;;;22.50;14.00;;;3.20;99.90;;;3.23;73.12;100714.22;4956576;29;20426;-85
2024/01/07 04:25:59;;;;;;;21.60;13.45;;;3.00;99.90;;;3.32;73.39;100708.00;4945193;29;20775;-85
2024/01/07 04:28:27;;;;;;;23.42;14.30;;;3.20;99.90;;;3.36;73.44;100713.75;4931776;29;20102;-84
2024/01/07 04:30:54;;;;;;;18.92;12.43;;;3.10;99.90;;;3.24;72.89;100715.03;4936304;29;20058;-85
2024/01/07 04:33:22;;;;;;;22.17;14.32;;;3.10;99.90;;;3.25;73.28;100714.03;4943496;29;20511;-84
2024/01/07 04:35:50;;;;;;;21.83;13.85;;;3.00;99.90;;;3.22;73.67;100717.84;4926089;29;20456;-84
2024/01/07 04:38:17;;;;;;;21.80;13.68;;;3.00;99.90;;;3.35;73.99;100717.38;4926736;29;20048;-85
2024/01/07 04:40:45;;;;;;;20.35;13.60;;;3.10;99.90;;;3.37;74.07;100720.72;4949455;29;20071;-85
2024/01/07 04:43:13;;;;;;;21.05;13.77;;;3.20;99.90;;;3.46;74.31;100724.19;4956108;29;20051;-84
2024/01/07 04:45:41;;;;;;;24.40;14.13;;;3.30;99.90;;;3.45;73.31;100728.63;4926127;29;20492;-85
2024/01/07 04:48:09;;;;;;;21.88;14.00;;;3.20;99.90;;;3.27;73.75;100730.50;4924290;29;20044;-85
2024/01/07 04:50:37;;;;;;;21.38;13.65;;;3.10;99.90;;;3.05;73.33;100738.00;4945207;29;20043;-85
2024/01/07 04:53:05;;;;;;;24.42;14.43;;;3.00;99.90;;;3.13;73.58;100737.22;4942123;29;20079;-85
2024/01/07 04:55:33;;;;;;;24.27;14.40;;;3.00;99.90;;;3.01;73.68;100736.63;4930241;29;20070;-85
2024/01/07 04:58:01;;;;;;;22.45;14.27;;;3.00;99.90;;;3.02;74.79;100734.81;4943652;29;20048;-85
2024/01/07 05:00:30;;;;;;;24.80;14.73;;;2.90;99.90;;;3.08;74.75;100742.97;4940449;29;20040;-84
2024/01/07 05:02:58;;;;;;;22.00;14.43;;;2.90;99.90;;;3.13;74.42;100750.41;4945006;29;20571;-84
2024/01/07 05:05:25;;;;;;;24.10;14.57;;;3.00;99.90;;;3.19;74.47;100749.75;4945937;29;20043;-85
2024/01/07 05:07:53;;;;;;;27.17;15.68;;;3.00;99.90;;;2.93;73.83;100741.88;4958277;29;20055;-85
2024/01/07 05:10:20;;;;;;;26.30;16.13;;;2.80;99.90;;;3.01;74.37;100754.25;4934649;29;20051;-85
2024/01/07 05:12:48;;;;;;;27.63;15.38;;;2.80;99.90;;;3.01;74.71;100757.72;4943977;29;20048;-84
2024/01/07 05:15:15;;;;;;;24.92;14.50;;;3.00;99.90;;;2.85;74.19;100749.72;4929437;29;20542;-84
2024/01/07 05:17:44;;;;;;;25.45;14.90;;;2.70;99.90;;;2.92;74.93;100752.56;4945175;29;20100;-84
2024/01/07 05:20:16;;;;;;;26.60;15.48;;;2.70;99.90;;;3.02;74.79;100758.53;4951979;29;20052;-84
2024/01/07 05:22:44;;;;;;;23.67;15.25;;;2.80;99.90;;;3.04;75.16;100762.69;4926692;29;20048;-84
2024/01/07 05:25:13;;;;;;;24.48;14.38;;;2.90;99.90;;;3.16;74.38;100765.06;4919122;29;20048;-84
2024/01/07 05:27:41;;;;;;;23.52;15.07;;;3.00;99.90;;;3.14;74.12;100767.03;4958866;29;20426;-84
2024/01/07 05:30:09;;;;;;;26.63;15.20;;;3.00;99.90;;;3.15;74.27;100773.94;4928174;29;20424;-84
2024/01/07 05:32:37;;;;;;;28.67;15.57;;;2.90;99.90;;;3.11;74.24;100783.97;4936037;29;20409;-84
2024/01/07 05:35:06;;;;;;;25.63;15.45;;;2.90;99.90;;;3.10;74.33;100777.88;4943137;29;20055;-84
2024/01/07 05:37:35;;;;;;;24.73;14.95;;;2.90;99.90;;;3.10;74.33;100788.41;4924855;29;20040;-84
2024/01/07 05:40:03;;;;;;;25.95;15.48;;;2.90;99.90;;;3.13;74.10;100779.38;4932743;29;20134;-84
2024/01/07 05:42:30;;;;;;;27.38;15.35;;;2.90;99.90;;;3.10;73.53;100787.59;4938880;29;20067;-84
2024/01/07 05:44:58;;;;;;;24.60;15.13;;;2.90;99.90;;;3.08;73.79;100785.13;4924119;29;20051;-85
2024/01/07 05:47:25;;;;;;;24.75;14.68;;;2.90;99.90;;;3.07;73.59;100796.66;4942733;29;20504;-84
2024/01/07 05:49:53;;;;;;;24.40;15.18;;;2.80;99.90;;;3.01;74.25;100791.97;4930315;29;20052;-84
2024/01/07 05:52:22;;;;;;;23.88;14.75;;;2.80;99.90;;;3.13;74.37;100802.28;4934058;29;20056;-85
2024/01/07 05:54:50;;;;;;;25.05;14.95;;;2.90;99.90;;;3.05;73.66;100800.41;4929573;29;20036;-84
2024/01/07 05:57:17;;;;;;;25.55;15.25;;;2.90;99.90;;;2.92;73.45;100813.13;4946678;29;20055;-85
2024/01/07 05:59:45;;;;;;;25.55;15.18;;;2.80;99.90;;;2.83;73.68;100805.19;4950836;29;20389;-84
2024/01/07 06:02:13;;;;;;;26.63;15.35;;;2.70;99.90;;;2.82;73.70;100810.59;4941942;29;20071;-84
2024/01/07 06:04:40;;;;;;;25.83;15.77;;;2.60;99.90;;;2.86;74.07;100809.31;4932518;29;20124;-84
2024/01/07 06:07:08;;;;;;;28.23;15.45;;;2.70;99.90;;;2.88;73.88;100815.28;4941585;29;20048;-84
2024/01/07 06:09:39;;;;;;;25.85;15.85;;;2.70;99.90;;;2.91;73.94;100817.56;4927440;29;20052;-84
2024/01/07 06:12:07;;;;;;;24.73;15.30;;;2.80;99.90;;;2.90;73.69;100829.09;4910836;29;20059;-85
2024/01/07 06:14:34;;;;;;;27.55;15.07;;;2.80;99.90;;;2.90;73.46;100833.53;4928159;29;20048;-84
2024/01/07 06:17:02;;;;;;;25.30;15.63;;;2.70;99.90;;;3.00;73.69;100835.09;4894942;29;20036;-85
2024/01/07 06:19:31;;;;;;;25.13;15.82;;;2.80;99.90;;;2.95;72.95;100844.44;4942583;29;20119;-85
2024/01/07 06:21:58;;;;;;;26.90;16.50;;;2.80;99.90;;;2.94;72.86;100834.91;4937656;29;20083;-84
2024/01/07 06:24:26;;;;;;;28.17;16.45;;;2.80;99.90;;;2.96;72.65;100844.28;4938199;29;20051;-84
2024/01/07 06:26:55;;;;;;;26.48;16.25;;;2.80;99.90;;;2.94;73.14;100841.00;4960597;29;20044;-84
2024/01/07 06:29:24;;;;;;;26.70;15.57;;;2.80;99.90;;;2.94;72.95;100850.72;4916888;29;20087;-84
2024/01/07 06:31:51;;;;;;;24.80;15.45;;;2.80;99.90;;;3.00;73.24;100856.19;4926312;29;20056;-84
2024/01/07 06:34:19;;;;;;;26.23;16.13;;;2.80;99.90;;;3.03;72.77;100853.25;4909775;29;20056;-84
2024/01/07 06:36:46;;;;;;;25.13;15.50;;;2.80;99.90;;;3.08;72.99;100853.63;4937738;29;20423;-84
2024/01/07 06:39:14;;;;;;;26.25;16.50;;;2.90;99.90;;;3.07;72.49;100866.94;4950373;29;20054;-84
2024/01/07 06:41:42;;;;;;;27.75;16.08;;;2.90;99.90;;;3.11;72.67;100865.66;4925893;29;20048;-84
2024/01/07 06:44:13;;;;;;;27.20;15.95;;;2.90;99.90;;;2.99;72.05;100872.97;4932134;29;20040;-84
2024/01/07 06:46:41;;;;;;;28.08;16.35;;;2.80;99.90;;;2.94;72.12;100872.59;4926573;29;20044;-84
2024/01/07 06:49:09;;;;;;;28.77;16.70;;;2.80;99.90;;;2.83;72.33;100867.53;4915595;29;20055;-84
2024/01/07 06:51:38;;;;;;;26.00;15.80;;;2.60;99.90;;;2.81;72.57;100874.78;4958037;29;20044;-84
2024/01/07 06:54:06;;;;;;;28.17;16.63;;;2.60;99.90;;;2.66;72.38;100878.91;4927571;29;20036;-84
2024/01/07 06:56:34;;;;;;;28.67;17.02;;;2.50;99.90;;;2.78;73.29;100882.97;4947918;29;20043;-84
2024/01/07 06:59:02;;;;;;;27.33;15.88;;;2.60;99.90;;;2.80;72.96;100894.19;4956180;29;20048;-84
2024/01/07 07:01:31;;;;;;;27.48;16.25;;;2.70;99.90;;;2.80;72.64;100891.56;4941508;29;20071;-84
2024/01/07 07:03:59;;;;;;;28.25;16.88;;;2.60;99.90;;;2.73;73.19;100899.25;4925634;29;20139;-84
2024/01/07 07:06:27;;;;;;;33.10;18.63;;;2.60;99.90;;;2.75;73.22;100893.81;4928929;29;20044;-85
2024/01/07 07:08:57;;;;;;;30.83;17.85;;;2.60;99.90;;;2.76;73.00;100900.75;4912672;29;20059;-84
2024/01/07 07:11:24;;;;;;;27.08;16.02;;;2.80;99.90;;;2.75;72.79;100902.56;4922269;29;20068;-84
2024/01/07 07:13:52;;;;;;;26.27;15.77;;;2.60;99.90;;;2.67;72.57;100913.00;4900202;29;20052;-84
2024/01/07 07:16:20;;;;;;;33.05;16.73;;;2.60;99.90;;;2.73;73.03;100911.56;4906620;29;20049;-85
2024/01/07 07:18:49;;;;;;;27.25;15.80;;;2.60;99.90;;;2.77;73.34;100910.28;4911772;29;20071;-85
2024/01/07 07:21:17;;;;;;;28.30;16.67;;;2.60;99.90;;;2.86;72.83;100924.38;4907217;29;20053;-85
2024/01/07 07:23:44;;;;;;;27.63;16.63;;;2.70;99.90;;;2.78;72.87;100918.06;4903297;29;20044;-87
2024/01/07 07:26:12;;;;;;;29.02;16.30;;;2.60;99.90;;;2.76;72.64;100924.44;4904494;29;20545;-88
2024/01/07 07:28:42;;;;;;;29.30;16.45;;;2.60;99.90;;;2.77;73.03;100934.00;4891216;29;20055;-88
2024/01/07 07:31:11;;;;;;;29.92;17.35;;;2.70;99.90;;;2.77;72.60;100939.25;4915500;29;20107;-87
2024/01/07 07:33:40;;;;;;;30.88;16.40;;;2.60;99.90;;;2.56;72.33;100934.28;4918997;29;20044;-87
2024/01/07 07:36:10;;;;;;;32.63;17.63;;;2.50;99.90;;;2.50;73.05;100943.59;4929890;29;20044;-87
2024/01/07 07:38:38;;;;;;;29.83;17.40;;;2.40;99.90;;;2.60;73.58;100951.44;4933419;29;20074;-87
2024/01/07 07:41:07;;;;;;;27.50;15.70;;;2.50;99.90;;;2.55;72.29;100953.69;4936694;29;20487;-87
2024/01/07 07:43:35;;;;;;;27.17;15.25;;;2.50;99.90;;;2.59;72.67;100957.69;4936663;29;20138;-87
2024/01/07 07:46:03;;;;;;;27.67;16.50;;;2.60;99.90;;;2.67;73.16;100964.84;4935179;29;20118;-88
2024/01/07 07:48:30;;;;;;;25.40;15.70;;;2.50;99.90;;;2.47;72.13;100970.19;4919438;29;20080;-88
2024/01/07 07:50:58;;;;;;;23.58;14.57;;;2.40;99.90;;;2.47;72.69;100974.63;4934054;29;20048;-87
2024/01/07 07:53:27;;;;;;;22.40;14.23;;;2.40;99.90;;;2.49;72.33;100980.56;4927035;29;20047;-87
2024/01/07 07:55:55;;;;;;;20.50;13.02;;;2.40;99.90;;;2.51;72.44;100981.28;4921011;29;20058;-86
2024/01/07 07:58:23;;;;;;;23.30;13.43;;;2.40;99.90;;;2.48;71.41;100990.28;4947943;29;20056;-87
2024/01/07 08:00:50;;;;;;;20.08;12.60;;;2.60;99.90;;;2.52;72.30;100999.53;4930867;29;20061;-87
2024/01/07 08:03:18;;;;;;;20.52;12.55;;;2.40;99.90;;;2.59;72.55;100999.81;4951626;29;20078;-87
2024/01/07 08:05:49;;;;;;;20.20;12.25;;;2.50;99.90;;;2.56;71.78;100998.28;4948833;29;20130;-88
2024/01/07 08:08:18;;;;;;;17.13;11.03;;;2.50;99.90;;;2.56;71.81;101008.00;4947939;28;20044;-87
2024/01/07 08:10:52;;;;;;;19.40;11.95;;;2.40;99.90;;;2.57;72.24;101012.28;4933520;29;20047;-87
2024/01/07 08:13:20;;;;;;;19.50;11.57;;;2.50;99.90;;;2.56;71.89;101018.53;4918696;29;20135;-87
2024/01/07 08:15:51;;;;;;;18.48;12.07;;;2.50;99.90;;;2.45;71.60;101022.19;4931496;29;20489;-87
2024/01/07 08:18:19;;;;;;;;;;;2.30;99.90;;;2.43;72.12;101023.28;4925300;29;20409;-87
2024/01/07 08:20:46;;;;;;;19.50;12.10;;;2.30;99.90;;;2.46;72.29;101031.72;4926689;29;20073;-87
2024/01/07 08:23:15;;;;;;;19.42;11.98;;;2.40;99.90;;;2.47;71.86;101038.66;4948439;29;20098;-87
2024/01/07 08:25:44;;;;;;;23.30;13.57;;;2.40;99.90;;;2.35;71.78;101036.34;4924810;29;20051;-87
2024/01/07 08:28:15;;;;;;;22.63;13.10;;;2.20;99.90;;;2.29;71.41;101035.97;4937705;29;20046;-86
2024/01/07 08:30:44;;;;;;;22.48;14.25;;;2.30;99.90;;;2.30;72.20;101040.25;4929341;29;20126;-87
2024/01/07 08:33:12;;;;;;;21.85;12.93;;;2.20;99.90;;;2.36;72.17;101046.72;4929541;29;20530;-87
2024/01/07 08:35:39;;;;;;;22.95;12.93;;;2.20;99.90;;;2.27;71.45;101045.78;4932391;29;20095;-87
2024/01/07 08:38:08;;;;;;;22.92;12.63;;;2.20;99.90;;;2.24;71.60;101053.13;4922467;29;20047;-87
2024/01/07 08:40:35;;;;;;;22.92;13.07;;;2.10;99.90;;;2.21;71.17;101050.78;4935912;29;20048;-87
2024/01/07 08:43:04;;;;;;;22.77;13.57;;;2.10;99.90;;;2.12;71.77;101056.91;4957344;29;20056;-87
2024/01/07 08:45:33;;;;;;;21.20;12.98;;;2.00;99.90;;;2.12;71.64;101051.63;4908028;29;20058;-87
2024/01/07 08:48:01;;;;;;;23.08;12.57;;;2.10;99.90;;;2.03;71.26;101055.94;4916138;29;20500;-86
2024/01/07 08:50:29;;;;;;;20.92;12.20;;;2.00;99.90;;;2.09;71.29;101067.69;4940351;29;20052;-85
2024/01/07 08:52:57;;;;;;;23.10;12.90;;;2.00;99.90;;;2.15;71.24;101061.88;4923727;29;20467;-87
2024/01/07 08:55:25;;;;;;;21.17;12.80;;;2.10;99.90;;;2.12;71.29;101070.88;4938264;29;20048;-87
2024/01/07 08:57:53;;;;;;;23.23;13.77;;;2.00;99.90;;;2.19;71.72;101071.13;4955037;29;20119;-87
2024/01/07 09:00:25;;;;;;;24.13;12.88;;;2.10;99.90;;;2.28;70.93;101083.44;4907978;29;20080;-87
2024/01/07 09:02:55;;;;;;;19.50;12.30;;;2.20;99.90;;;2.24;70.87;101084.69;4928738;29;20111;-87
2024/01/07 09:05:23;;;;;;;23.58;12.73;;;2.20;99.90;;;2.28;70.57;101089.53;4935611;29;20044;-87
2024/01/07 09:07:52;;;;;;;23.35;13.13;;;2.20;99.90;;;2.35;70.98;101081.91;4935300;29;20035;-87
2024/01/07 09:10:21;;;;;;;22.30;12.90;;;2.30;99.90;;;2.40;70.49;101084.94;4939221;29;20062;-87
2024/01/07 09:12:50;;;;;;;21.67;12.27;;;2.30;99.90;;;2.38;70.51;101091.31;4925585;29;20042;-87
2024/01/07 09:15:20;;;;;;;21.15;12.18;;;2.20;99.90;;;2.33;69.89;101092.56;4953080;29;20487;-87
2024/01/07 09:17:49;;;;;;;20.88;13.05;;;2.20;99.90;;;2.38;70.15;101096.59;4950681;29;20044;-87
2024/01/07 09:20:19;;;;;;;19.95;12.00;;;2.30;99.90;;;2.16;69.44;101092.50;4930500;29;20051;-87
2024/01/07 09:22:48;;;;;;;20.10;11.80;;;2.10;99.90;;;2.10;69.59;101093.03;4925327;29;20054;-87
2024/01/07 09:25:16;;;;;;;20.48;12.50;;;2.00;99.90;;;2.06;69.51;101100.41;4931994;29;20036;-88
2024/01/07 09:27:44;;;;;;;23.08;12.43;;;2.00;99.90;;;1.99;69.87;101097.47;4929110;29;20102;-87
2024/01/07 09:30:15;;;;;;;21.63;12.93;;;1.90;99.90;;;2.10;70.21;101103.56;4938320;29;20047;-87
2024/01/07 09:32:43;;;;;;;16.08;11.20;;;2.00;99.90;;;2.02;70.14;101120.88;4926206;29;20104;-87
2024/01/07 09:35:11;;;;;;;18.95;11.57;;;2.00;99.90;;;1.96;69.68;101118.81;4917795;29;20048;-87
2024/01/07 09:37:40;;;;;;;18.58;12.10;;;1.90;99.90;;;2.01;70.37;101121.03;4930091;29;20054;-87
2024/01/07 09:40:09;;;;;;;19.67;11.85;;;2.00;99.90;;;1.96;70.36;101126.69;4936706;29;20059;-88
2024/01/07 09:42:37;;;;;;;19.00;12.55;;;2.00;99.90;;;1.87;70.03;101119.66;4911704;29;20547;-87
2024/01/07 09:45:06;;;;;;;18.80;12.27;;;1.90;99.90;;;2.01;70.68;101115.75;4929863;29;20056;-87
2024/01/07 09:47:36;;;;;;;20.92;12.38;;;1.90;99.90;;;2.14;70.83;101118.09;4937620;29;20459;-87
2024/01/07 09:50:05;;;;;;;19.52;12.65;;;2.00;99.90;;;2.01;69.79;101131.56;4928462;29;20058;-87
2024/01/07 09:52:34;;;;;;;18.80;11.75;;;2.00;99.90;;;1.87;70.13;101127.53;4937098;29;20056;-87
2024/01/07 09:55:09;;;;;;;19.65;11.65;;;1.90;99.90;;;1.86;70.14;101132.94;4925597;29;20059;-87
2024/01/07 09:57:41;;;;;;;18.73;11.57;;;1.80;99.90;;;1.94;70.21;101138.31;4903206;29;20060;-87
2024/01/07 10:00:10;;;;;;;18.20;12.18;;;1.90;99.90;;;2.09;70.67;101133.47;4901950;29;20107;-87
2024/01/07 10:02:41;;;;;;;19.33;11.95;;;2.00;99.90;;;2.19;70.45;101135.13;4903014;29;20063;-87
2024/01/07 10:05:09;;;;;;;18.90;12.25;;;2.10;99.90;;;2.15;70.22;101136.38;4918031;29;20136;-87
2024/01/07 10:07:37;;;;;;;19.98;11.98;;;2.10;99.90;;;2.10;69.16;101151.75;4917536;29;20153;-87
2024/01/07 10:10:15;;;;;;;17.95;11.45;;;2.00;99.90;;;2.04;69.76;101158.38;4917652;29;20052;-87
2024/01/07 10:12:44;;;;;;;19.08;12.23;;;2.00;99.90;;;1.93;69.89;101148.00;4920302;29;20526;-87
2024/01/07 10:15:12;;;;;;;21.38;12.95;;;2.00;99.90;;;2.01;70.25;101145.53;4931256;29;20069;-87
2024/01/07 10:17:42;;;;;;;20.48;12.85;;;1.90;99.90;;;2.08;70.10;101151.06;4921724;29;20048;-87